American Canyon, California
Current Conditions -  °F | °C
As of 4:54 PM on Saturday 25 Oct 2014 (Local Time) from KAPC Reporting Station
Overcast Overcast  
Wind Chill: 67°   Ceiling: 2900
Heat Index: 67°   Visibility: 10mi
Dew Point: 57°   Wind: 10mph
Humidity: 70%   Direction: 280°W
Pressure: 30.04"   Gusts: NA
Location:  38.17°N, 122.25°W
Report Text: KAPC 252354Z AUTO 28009KT 10SM BKN029 BKN040 OVC100 19/14 A3004 RMK AO2 RAB05E17 SLP165 P0000 60000 T01940139 10228 20178 53002
Loading
Personal Weather Stations






























Interactive Weather Map New forecast layout! Learn more

10-Day Weather Forecast

Advertisements
Track Severe Weather on mobile